sensor_id;sensor_type;location;lat;lon;timestamp;temperature;humidity
3350;DHT22;1688;51.000;13.684;2023-11-21T00:00:41;10.60;99.90
3350;DHT22;1688;51.000;13.684;2023-11-21T00:03:14;10.60;99.90
3350;DHT22;1688;51.000;13.684;2023-11-21T00:05:47;10.60;99.90
3350;DHT22;1688;51.000;13.684;2023-11-21T00:08:20;10.60;99.90
3350;DHT22;1688;51.000;13.684;2023-11-21T00:10:53;10.60;99.90
3350;DHT22;1688;51.000;13.684;2023-11-21T00:13:27;10.60;99.90
3350;DHT22;1688;51.000;13.684;2023-11-21T00:16:00;10.60;99.90
3350;DHT22;1688;51.000;13.684;2023-11-21T00:18:33;10.60;99.90
3350;DHT22;1688;51.000;13.684;2023-11-21T00:21:06;10.60;99.90
3350;DHT22;1688;51.000;13.684;2023-11-21T00:23:39;10.60;99.90
3350;DHT22;1688;51.000;13.684;2023-11-21T00:26:12;10.60;99.90
3350;DHT22;1688;51.000;13.684;2023-11-21T00:28:45;10.60;99.90
3350;DHT22;1688;51.000;13.684;2023-11-21T00:31:18;10.70;99.90
3350;DHT22;1688;51.000;13.684;2023-11-21T00:33:51;10.70;99.90
3350;DHT22;1688;51.000;13.684;2023-11-21T00:36:24;10.80;99.90
3350;DHT22;1688;51.000;13.684;2023-11-21T00:38:58;10.80;99.90
3350;DHT22;1688;51.000;13.684;2023-11-21T00:41:32;10.80;99.90
3350;DHT22;1688;51.000;13.684;2023-11-21T00:44:05;10.80;99.90
3350;DHT22;1688;51.000;13.684;2023-11-21T00:46:39;10.70;99.90
3350;DHT22;1688;51.000;13.684;2023-11-21T00:49:12;10.60;99.90
3350;DHT22;1688;51.000;13.684;2023-11-21T00:51:45;10.70;99.90
3350;DHT22;1688;51.000;13.684;2023-11-21T00:54:18;10.70;99.90
3350;DHT22;1688;51.000;13.684;2023-11-21T00:56:51;10.70;99.90
3350;DHT22;1688;51.000;13.684;2023-11-21T00:59:24;10.70;99.90
3350;DHT22;1688;51.000;13.684;2023-11-21T01:01:57;10.70;99.90
3350;DHT22;1688;51.000;13.684;2023-11-21T01:04:33;10.70;99.90
3350;DHT22;1688;51.000;13.684;2023-11-21T01:07:05;10.70;99.90
3350;DHT22;1688;51.000;13.684;2023-11-21T01:09:38;10.80;99.90
3350;DHT22;1688;51.000;13.684;2023-11-21T01:12:11;10.90;99.90
3350;DHT22;1688;51.000;13.684;2023-11-21T01:14:44;10.90;99.90
3350;DHT22;1688;51.000;13.684;2023-11-21T01:17:18;10.90;99.90
3350;DHT22;1688;51.000;13.684;2023-11-21T01:19:51;10.90;99.90
3350;DHT22;1688;51.000;13.684;2023-11-21T01:22:24;10.90;99.90
3350;DHT22;1688;51.000;13.684;2023-11-21T01:24:59;10.90;99.90
3350;DHT22;1688;51.000;13.684;2023-11-21T01:27:31;10.90;99.90
3350;DHT22;1688;51.000;13.684;2023-11-21T01:30:05;10.90;99.90
3350;DHT22;1688;51.000;13.684;2023-11-21T01:32:40;10.90;99.90
3350;DHT22;1688;51.000;13.684;2023-11-21T01:35:13;10.90;99.90
3350;DHT22;1688;51.000;13.684;2023-11-21T01:37:46;10.90;99.90
3350;DHT22;1688;51.000;13.684;2023-11-21T01:40:20;10.90;99.90
3350;DHT22;1688;51.000;13.684;2023-11-21T01:42:53;10.70;99.90
3350;DHT22;1688;51.000;13.684;2023-11-21T01:45:26;10.70;99.90
3350;DHT22;1688;51.000;13.684;2023-11-21T01:48:00;10.70;99.90
3350;DHT22;1688;51.000;13.684;2023-11-21T01:50:33;10.70;99.90
3350;DHT22;1688;51.000;13.684;2023-11-21T01:53:06;10.70;99.90
3350;DHT22;1688;51.000;13.684;2023-11-21T01:55:42;10.60;99.90
3350;DHT22;1688;51.000;13.684;2023-11-21T01:58:16;10.70;99.90
3350;DHT22;1688;51.000;13.684;2023-11-21T02:00:49;10.70;99.90
3350;DHT22;1688;51.000;13.684;2023-11-21T02:03:23;10.70;99.90
3350;DHT22;1688;51.000;13.684;2023-11-21T02:05:56;10.80;99.90
3350;DHT22;1688;51.000;13.684;2023-11-21T02:08:29;10.80;99.90
3350;DHT22;1688;51.000;13.684;2023-11-21T02:11:02;10.80;99.90
3350;DHT22;1688;51.000;13.684;2023-11-21T02:13:35;10.80;99.90
3350;DHT22;1688;51.000;13.684;2023-11-21T02:16:09;10.80;99.90
3350;DHT22;1688;51.000;13.684;2023-11-21T02:18:42;10.80;99.90
3350;DHT22;1688;51.000;13.684;2023-11-21T02:21:15;10.80;99.90
3350;DHT22;1688;51.000;13.684;2023-11-21T02:23:48;10.80;99.90
3350;DHT22;1688;51.000;13.684;2023-11-21T02:26:20;10.80;99.90
3350;DHT22;1688;51.000;13.684;2023-11-21T02:28:53;10.80;99.90
3350;DHT22;1688;51.000;13.684;2023-11-21T02:31:26;10.80;99.90
3350;DHT22;1688;51.000;13.684;2023-11-21T02:33:59;10.80;99.90
3350;DHT22;1688;51.000;13.684;2023-11-21T02:36:32;10.90;99.90
3350;DHT22;1688;51.000;13.684;2023-11-21T02:39:05;11.00;99.90
3350;DHT22;1688;51.000;13.684;2023-11-21T02:41:40;11.00;99.90
3350;DHT22;1688;51.000;13.684;2023-11-21T02:44:12;11.00;99.90
3350;DHT22;1688;51.000;13.684;2023-11-21T02:46:45;11.00;99.90
3350;DHT22;1688;51.000;13.684;2023-11-21T02:49:19;11.00;99.90
3350;DHT22;1688;51.000;13.684;2023-11-21T02:51:52;11.00;99.90
3350;DHT22;1688;51.000;13.684;2023-11-21T02:54:25;11.00;99.90
3350;DHT22;1688;51.000;13.684;2023-11-21T02:56:59;10.90;99.90
3350;DHT22;1688;51.000;13.684;2023-11-21T02:59:32;10.90;99.90
3350;DHT22;1688;51.000;13.684;2023-11-21T03:02:05;10.90;99.90
3350;DHT22;1688;51.000;13.684;2023-11-21T03:04:41;10.80;99.90
3350;DHT22;1688;51.000;13.684;2023-11-21T03:07:15;10.70;99.90
3350;DHT22;1688;51.000;13.684;2023-11-21T03:09:48;10.70;99.90
3350;DHT22;1688;51.000;13.684;2023-11-21T03:12:21;10.70;99.90
3350;DHT22;1688;51.000;13.684;2023-11-21T03:14:54;10.60;99.90
3350;DHT22;1688;51.000;13.684;2023-11-21T03:17:27;10.50;99.90
3350;DHT22;1688;51.000;13.684;2023-11-21T03:20:00;10.50;99.90
3350;DHT22;1688;51.000;13.684;2023-11-21T03:22:33;10.50;99.90
3350;DHT22;1688;51.000;13.684;2023-11-21T03:25:07;10.50;99.90
3350;DHT22;1688;51.000;13.684;2023-11-21T03:27:43;10.50;99.90
3350;DHT22;1688;51.000;13.684;2023-11-21T03:30:16;10.50;99.90
3350;DHT22;1688;51.000;13.684;2023-11-21T03:32:49;10.40;99.90
3350;DHT22;1688;51.000;13.684;2023-11-21T03:35:22;10.40;99.90
3350;DHT22;1688;51.000;13.684;2023-11-21T03:37:55;10.50;99.90
3350;DHT22;1688;51.000;13.684;2023-11-21T03:40:29;10.50;99.90
3350;DHT22;1688;51.000;13.684;2023-11-21T03:43:02;10.50;99.90
3350;DHT22;1688;51.000;13.684;2023-11-21T03:45:34;10.50;99.90
3350;DHT22;1688;51.000;13.684;2023-11-21T03:48:07;10.60;99.90
3350;DHT22;1688;51.000;13.684;2023-11-21T03:50:41;10.60;99.90
3350;DHT22;1688;51.000;13.684;2023-11-21T03:53:14;10.60;99.90
3350;DHT22;1688;51.000;13.684;2023-11-21T03:55:47;10.60;99.90
3350;DHT22;1688;51.000;13.684;2023-11-21T03:58:20;10.60;99.90
3350;DHT22;1688;51.000;13.684;2023-11-21T04:00:53;10.60;99.90
3350;DHT22;1688;51.000;13.684;2023-11-21T04:03:25;10.60;99.90
3350;DHT22;1688;51.000;13.684;2023-11-21T04:05:58;10.70;99.90
3350;DHT22;1688;51.000;13.684;2023-11-21T04:08:33;10.60;99.90
3350;DHT22;1688;51.000;13.684;2023-11-21T04:11:06;10.60;99.90
3350;DHT22;1688;51.000;13.684;2023-11-21T04:13:40;10.60;99.90
3350;DHT22;1688;51.000;13.684;2023-11-21T04:16:13;10.50;99.90
3350;DHT22;1688;51.000;13.684;2023-11-21T04:18:46;10.50;99.90
3350;DHT22;1688;51.000;13.684;2023-11-21T04:21:19;10.40;99.90
3350;DHT22;1688;51.000;13.684;2023-11-21T04:23:52;10.40;99.90
3350;DHT22;1688;51.000;13.684;2023-11-21T04:26:24;10.40;99.90
3350;DHT22;1688;51.000;13.684;2023-11-21T04:28:57;10.40;99.90
3350;DHT22;1688;51.000;13.684;2023-11-21T04:31:30;10.40;99.90
3350;DHT22;1688;51.000;13.684;2023-11-21T04:34:03;10.40;99.90
3350;DHT22;1688;51.000;13.684;2023-11-21T04:36:36;10.40;99.90
3350;DHT22;1688;51.000;13.684;2023-11-21T04:39:09;10.40;99.90
3350;DHT22;1688;51.000;13.684;2023-11-21T04:41:42;10.30;99.90
3350;DHT22;1688;51.000;13.684;2023-11-21T04:44:15;10.30;99.90
3350;DHT22;1688;51.000;13.684;2023-11-21T04:46:49;10.40;99.90
3350;DHT22;1688;51.000;13.684;2023-11-21T04:49:22;10.40;99.90
3350;DHT22;1688;51.000;13.684;2023-11-21T04:51:54;10.40;99.90
3350;DHT22;1688;51.000;13.684;2023-11-21T04:54:27;10.40;99.90
3350;DHT22;1688;51.000;13.684;2023-11-21T04:57:00;10.40;99.90
3350;DHT22;1688;51.000;13.684;2023-11-21T04:59:34;10.40;99.90
3350;DHT22;1688;51.000;13.684;2023-11-21T05:02:07;10.50;99.90
3350;DHT22;1688;51.000;13.684;2023-11-21T05:04:41;10.50;99.90
3350;DHT22;1688;51.000;13.684;2023-11-21T05:07:15;10.60;99.90
3350;DHT22;1688;51.000;13.684;2023-11-21T05:09:49;10.60;99.90
3350;DHT22;1688;51.000;13.684;2023-11-21T05:12:23;10.60;99.90
3350;DHT22;1688;51.000;13.684;2023-11-21T05:14:56;10.60;99.90
3350;DHT22;1688;51.000;13.684;2023-11-21T05:17:31;10.70;99.90
3350;DHT22;1688;51.000;13.684;2023-11-21T05:20:04;10.70;99.90
3350;DHT22;1688;51.000;13.684;2023-11-21T05:22:40;10.70;99.90
3350;DHT22;1688;51.000;13.684;2023-11-21T05:25:15;10.70;99.90
3350;DHT22;1688;51.000;13.684;2023-11-21T05:27:51;10.70;99.90
3350;DHT22;1688;51.000;13.684;2023-11-21T05:30:23;10.70;99.90
3350;DHT22;1688;51.000;13.684;2023-11-21T05:32:56;10.70;99.90
3350;DHT22;1688;51.000;13.684;2023-11-21T05:35:29;10.70;99.90
3350;DHT22;1688;51.000;13.684;2023-11-21T05:38:02;10.70;99.90
3350;DHT22;1688;51.000;13.684;2023-11-21T05:40:35;10.70;99.90
3350;DHT22;1688;51.000;13.684;2023-11-21T05:43:09;10.70;99.90
3350;DHT22;1688;51.000;13.684;2023-11-21T05:45:42;10.70;99.90
3350;DHT22;1688;51.000;13.684;2023-11-21T05:48:15;10.70;99.90
3350;DHT22;1688;51.000;13.684;2023-11-21T05:50:48;10.70;99.90
3350;DHT22;1688;51.000;13.684;2023-11-21T05:53:22;10.60;99.90
3350;DHT22;1688;51.000;13.684;2023-11-21T05:55:55;10.60;99.90
3350;DHT22;1688;51.000;13.684;2023-11-21T05:58:28;10.60;99.90
3350;DHT22;1688;51.000;13.684;2023-11-21T06:01:01;10.70;99.90
3350;DHT22;1688;51.000;13.684;2023-11-21T06:03:33;10.60;99.90
3350;DHT22;1688;51.000;13.684;2023-11-21T06:06:07;10.60;99.90
3350;DHT22;1688;51.000;13.684;2023-11-21T06:08:39;10.60;99.90
3350;DHT22;1688;51.000;13.684;2023-11-21T06:11:12;10.60;99.90
3350;DHT22;1688;51.000;13.684;2023-11-21T06:13:46;10.60;99.90
3350;DHT22;1688;51.000;13.684;2023-11-21T06:16:20;10.50;99.90
3350;DHT22;1688;51.000;13.684;2023-11-21T06:18:53;10.40;99.90
3350;DHT22;1688;51.000;13.684;2023-11-21T06:21:26;10.30;99.90
3350;DHT22;1688;51.000;13.684;2023-11-21T06:23:59;10.40;99.90
3350;DHT22;1688;51.000;13.684;2023-11-21T06:26:32;10.30;99.90
3350;DHT22;1688;51.000;13.684;2023-11-21T06:29:05;10.30;99.90
3350;DHT22;1688;51.000;13.684;2023-11-21T06:31:39;10.20;99.90
3350;DHT22;1688;51.000;13.684;2023-11-21T06:34:13;10.20;99.90
3350;DHT22;1688;51.000;13.684;2023-11-21T06:36:46;10.20;99.90
3350;DHT22;1688;51.000;13.684;2023-11-21T06:39:19;10.20;99.90
3350;DHT22;1688;51.000;13.684;2023-11-21T06:41:55;10.20;99.90
3350;DHT22;1688;51.000;13.684;2023-11-21T06:44:28;10.20;99.90
3350;DHT22;1688;51.000;13.684;2023-11-21T06:47:00;10.20;99.90
3350;DHT22;1688;51.000;13.684;2023-11-21T06:49:34;10.20;99.90
3350;DHT22;1688;51.000;13.684;2023-11-21T06:52:06;10.20;99.90
3350;DHT22;1688;51.000;13.684;2023-11-21T06:54:40;10.20;99.90
3350;DHT22;1688;51.000;13.684;2023-11-21T06:57:13;10.20;99.90
3350;DHT22;1688;51.000;13.684;2023-11-21T06:59:46;10.30;99.90
3350;DHT22;1688;51.000;13.684;2023-11-21T07:02:19;10.40;99.90
3350;DHT22;1688;51.000;13.684;2023-11-21T07:04:52;10.40;99.90
3350;DHT22;1688;51.000;13.684;2023-11-21T07:07:25;10.40;99.90
3350;DHT22;1688;51.000;13.684;2023-11-21T07:09:58;10.40;99.90
3350;DHT22;1688;51.000;13.684;2023-11-21T07:12:35;10.50;99.90
3350;DHT22;1688;51.000;13.684;2023-11-21T07:15:09;10.40;99.90
3350;DHT22;1688;51.000;13.684;2023-11-21T07:17:42;10.40;99.90
3350;DHT22;1688;51.000;13.684;2023-11-21T07:20:16;10.30;99.90
3350;DHT22;1688;51.000;13.684;2023-11-21T07:22:50;10.20;99.90
3350;DHT22;1688;51.000;13.684;2023-11-21T07:25:22;10.20;99.90
3350;DHT22;1688;51.000;13.684;2023-11-21T07:27:55;10.10;99.90
3350;DHT22;1688;51.000;13.684;2023-11-21T07:30:28;10.10;99.90
3350;DHT22;1688;51.000;13.684;2023-11-21T07:33:01;10.10;99.90
3350;DHT22;1688;51.000;13.684;2023-11-21T07:35:34;10.10;99.90
3350;DHT22;1688;51.000;13.684;2023-11-21T07:38:07;10.10;99.90
3350;DHT22;1688;51.000;13.684;2023-11-21T07:40:41;10.10;99.90
3350;DHT22;1688;51.000;13.684;2023-11-21T07:43:14;10.10;99.90
3350;DHT22;1688;51.000;13.684;2023-11-21T07:45:46;10.00;99.90
3350;DHT22;1688;51.000;13.684;2023-11-21T07:48:19;10.00;99.90
3350;DHT22;1688;51.000;13.684;2023-11-21T07:50:52;10.10;99.90
3350;DHT22;1688;51.000;13.684;2023-11-21T07:53:25;10.10;99.90
3350;DHT22;1688;51.000;13.684;2023-11-21T07:56:09;10.20;99.90
3350;DHT22;1688;51.000;13.684;2023-11-21T07:58:42;10.20;99.90
3350;DHT22;1688;51.000;13.684;2023-11-21T08:01:15;10.20;99.90
3350;DHT22;1688;51.000;13.684;2023-11-21T08:03:47;10.20;99.90
3350;DHT22;1688;51.000;13.684;2023-11-21T08:06:24;10.30;99.90
3350;DHT22;1688;51.000;13.684;2023-11-21T08:08:59;10.40;99.90
3350;DHT22;1688;51.000;13.684;2023-11-21T08:11:31;10.40;99.90
3350;DHT22;1688;51.000;13.684;2023-11-21T08:14:05;10.40;99.90
3350;DHT22;1688;51.000;13.684;2023-11-21T08:16:38;10.40;99.90
3350;DHT22;1688;51.000;13.684;2023-11-21T08:19:11;10.40;99.90
3350;DHT22;1688;51.000;13.684;2023-11-21T08:21:44;10.40;99.90
3350;DHT22;1688;51.000;13.684;2023-11-21T08:24:18;10.40;99.90
3350;DHT22;1688;51.000;13.684;2023-11-21T08:26:51;10.40;99.90
3350;DHT22;1688;51.000;13.684;2023-11-21T08:29:25;10.30;99.90
3350;DHT22;1688;51.000;13.684;2023-11-21T08:31:57;10.30;99.90
3350;DHT22;1688;51.000;13.684;2023-11-21T08:34:30;10.20;99.90
3350;DHT22;1688;51.000;13.684;2023-11-21T08:37:03;10.10;99.90
3350;DHT22;1688;51.000;13.684;2023-11-21T08:39:39;10.10;99.90
3350;DHT22;1688;51.000;13.684;2023-11-21T08:42:14;10.00;99.90
3350;DHT22;1688;51.000;13.684;2023-11-21T08:44:47;10.10;99.90
3350;DHT22;1688;51.000;13.684;2023-11-21T08:47:20;10.10;99.90
3350;DHT22;1688;51.000;13.684;2023-11-21T08:49:53;10.10;99.90
3350;DHT22;1688;51.000;13.684;2023-11-21T08:52:26;10.10;99.90
3350;DHT22;1688;51.000;13.684;2023-11-21T08:54:59;10.10;99.90
3350;DHT22;1688;51.000;13.684;2023-11-21T08:57:35;10.00;99.90
3350;DHT22;1688;51.000;13.684;2023-11-21T09:00:10;10.00;99.90
3350;DHT22;1688;51.000;13.684;2023-11-21T09:02:52;10.10;99.90
3350;DHT22;1688;51.000;13.684;2023-11-21T09:05:24;10.10;99.90
3350;DHT22;1688;51.000;13.684;2023-11-21T09:07:58;10.10;99.90
3350;DHT22;1688;51.000;13.684;2023-11-21T09:10:31;10.10;99.90
3350;DHT22;1688;51.000;13.684;2023-11-21T09:13:05;10.10;99.90
3350;DHT22;1688;51.000;13.684;2023-11-21T09:15:38;10.20;99.90
3350;DHT22;1688;51.000;13.684;2023-11-21T09:18:10;10.20;99.90
3350;DHT22;1688;51.000;13.684;2023-11-21T09:20:43;10.20;99.90
3350;DHT22;1688;51.000;13.684;2023-11-21T09:23:19;10.20;99.90
3350;DHT22;1688;51.000;13.684;2023-11-21T09:25:52;10.20;99.90
3350;DHT22;1688;51.000;13.684;2023-11-21T09:28:29;10.10;99.90
3350;DHT22;1688;51.000;13.684;2023-11-21T09:31:02;10.10;99.90
3350;DHT22;1688;51.000;13.684;2023-11-21T09:33:37;10.00;99.90
3350;DHT22;1688;51.000;13.684;2023-11-21T09:36:14;9.90;99.90
3350;DHT22;1688;51.000;13.684;2023-11-21T09:38:47;9.70;99.90
3350;DHT22;1688;51.000;13.684;2023-11-21T09:41:40;9.80;99.90
3350;DHT22;1688;51.000;13.684;2023-11-21T09:44:27;9.70;99.90
3350;DHT22;1688;51.000;13.684;2023-11-21T09:47:02;9.60;99.90
3350;DHT22;1688;51.000;13.684;2023-11-21T09:49:36;9.60;99.90
3350;DHT22;1688;51.000;13.684;2023-11-21T09:52:16;9.70;99.90
3350;DHT22;1688;51.000;13.684;2023-11-21T09:54:52;9.60;99.90
3350;DHT22;1688;51.000;13.684;2023-11-21T09:57:26;9.60;99.90
3350;DHT22;1688;51.000;13.684;2023-11-21T10:00:01;9.60;99.90
3350;DHT22;1688;51.000;13.684;2023-11-21T10:02:38;9.50;99.90
3350;DHT22;1688;51.000;13.684;2023-11-21T10:05:13;9.40;99.90
3350;DHT22;1688;51.000;13.684;2023-11-21T10:07:47;9.30;99.90
3350;DHT22;1688;51.000;13.684;2023-11-21T10:10:22;9.10;99.90
3350;DHT22;1688;51.000;13.684;2023-11-21T10:12:57;8.90;99.90
3350;DHT22;1688;51.000;13.684;2023-11-21T10:15:34;8.80;99.90
3350;DHT22;1688;51.000;13.684;2023-11-21T10:18:08;8.60;99.90
3350;DHT22;1688;51.000;13.684;2023-11-21T10:20:42;8.50;99.90
3350;DHT22;1688;51.000;13.684;2023-11-21T10:23:20;8.50;99.90
3350;DHT22;1688;51.000;13.684;2023-11-21T10:25:57;8.40;99.90
3350;DHT22;1688;51.000;13.684;2023-11-21T10:29:09;8.40;99.90
3350;DHT22;1688;51.000;13.684;2023-11-21T10:31:45;8.40;99.90
3350;DHT22;1688;51.000;13.684;2023-11-21T10:34:19;8.40;99.90
3350;DHT22;1688;51.000;13.684;2023-11-21T10:36:53;8.40;99.90
3350;DHT22;1688;51.000;13.684;2023-11-21T10:39:25;8.40;99.90
3350;DHT22;1688;51.000;13.684;2023-11-21T10:42:03;8.30;99.90
3350;DHT22;1688;51.000;13.684;2023-11-21T10:44:36;8.30;99.90
3350;DHT22;1688;51.000;13.684;2023-11-21T10:47:10;8.00;99.90
3350;DHT22;1688;51.000;13.684;2023-11-21T10:49:45;8.00;99.90
3350;DHT22;1688;51.000;13.684;2023-11-21T10:52:20;7.90;99.90
3350;DHT22;1688;51.000;13.684;2023-11-21T10:54:53;7.90;99.90
3350;DHT22;1688;51.000;13.684;2023-11-21T10:57:26;7.80;99.90
3350;DHT22;1688;51.000;13.684;2023-11-21T11:00:00;7.80;99.90
3350;DHT22;1688;51.000;13.684;2023-11-21T11:02:33;7.90;99.90
3350;DHT22;1688;51.000;13.684;2023-11-21T11:05:08;7.90;99.90
3350;DHT22;1688;51.000;13.684;2023-11-21T11:07:44;8.00;99.90
3350;DHT22;1688;51.000;13.684;2023-11-21T11:10:23;7.80;99.90
3350;DHT22;1688;51.000;13.684;2023-11-21T11:12:59;7.70;99.90
3350;DHT22;1688;51.000;13.684;2023-11-21T11:15:32;7.70;99.90
3350;DHT22;1688;51.000;13.684;2023-11-21T11:18:06;7.70;99.90
3350;DHT22;1688;51.000;13.684;2023-11-21T11:20:40;7.70;99.90
3350;DHT22;1688;51.000;13.684;2023-11-21T11:29:23;7.50;99.90
3350;DHT22;1688;51.000;13.684;2023-11-21T11:35:03;7.50;99.90
3350;DHT22;1688;51.000;13.684;2023-11-21T11:37:37;7.40;99.90
3350;DHT22;1688;51.000;13.684;2023-11-21T11:40:13;7.40;99.90
3350;DHT22;1688;51.000;13.684;2023-11-21T11:43:01;7.20;99.90
3350;DHT22;1688;51.000;13.684;2023-11-21T11:45:38;7.10;99.90
3350;DHT22;1688;51.000;13.684;2023-11-21T11:48:16;7.10;99.90
3350;DHT22;1688;51.000;13.684;2023-11-21T11:51:03;7.10;99.90
3350;DHT22;1688;51.000;13.684;2023-11-21T11:53:45;7.10;99.90
3350;DHT22;1688;51.000;13.684;2023-11-21T11:56:29;7.00;99.90
3350;DHT22;1688;51.000;13.684;2023-11-21T11:59:07;6.90;99.90
3350;DHT22;1688;51.000;13.684;2023-11-21T12:01:45;6.90;99.90
3350;DHT22;1688;51.000;13.684;2023-11-21T12:07:05;6.80;99.90
3350;DHT22;1688;51.000;13.684;2023-11-21T12:09:38;6.70;99.90
3350;DHT22;1688;51.000;13.684;2023-11-21T12:12:11;6.80;99.90
3350;DHT22;1688;51.000;13.684;2023-11-21T12:14:46;6.80;99.90
3350;DHT22;1688;51.000;13.684;2023-11-21T12:17:19;6.80;99.90
3350;DHT22;1688;51.000;13.684;2023-11-21T12:19:52;6.80;99.90
3350;DHT22;1688;51.000;13.684;2023-11-21T12:22:26;6.70;99.90
3350;DHT22;1688;51.000;13.684;2023-11-21T12:24:59;6.60;99.90
3350;DHT22;1688;51.000;13.684;2023-11-21T12:27:33;6.60;99.90
3350;DHT22;1688;51.000;13.684;2023-11-21T12:30:06;6.60;99.90
3350;DHT22;1688;51.000;13.684;2023-11-21T12:32:51;6.60;99.90
3350;DHT22;1688;51.000;13.684;2023-11-21T12:35:29;6.60;99.90
3350;DHT22;1688;51.000;13.684;2023-11-21T12:38:04;6.70;99.90
3350;DHT22;1688;51.000;13.684;2023-11-21T12:40:42;6.70;99.90
3350;DHT22;1688;51.000;13.684;2023-11-21T12:43:14;6.70;99.90
3350;DHT22;1688;51.000;13.684;2023-11-21T12:45:47;6.90;99.90
3350;DHT22;1688;51.000;13.684;2023-11-21T12:48:20;6.90;99.90
3350;DHT22;1688;51.000;13.684;2023-11-21T12:50:57;7.00;99.90
3350;DHT22;1688;51.000;13.684;2023-11-21T12:53:32;7.00;99.90
3350;DHT22;1688;51.000;13.684;2023-11-21T12:56:11;7.00;99.90
3350;DHT22;1688;51.000;13.684;2023-11-21T12:58:45;7.00;99.90
3350;DHT22;1688;51.000;13.684;2023-11-21T13:01:21;7.10;99.90
3350;DHT22;1688;51.000;13.684;2023-11-21T13:03:58;7.10;99.90
3350;DHT22;1688;51.000;13.684;2023-11-21T13:06:31;7.00;99.90
3350;DHT22;1688;51.000;13.684;2023-11-21T13:09:08;6.90;99.90
3350;DHT22;1688;51.000;13.684;2023-11-21T13:11:43;6.90;99.90
3350;DHT22;1688;51.000;13.684;2023-11-21T13:14:18;6.80;99.90
3350;DHT22;1688;51.000;13.684;2023-11-21T13:16:51;6.80;99.90
3350;DHT22;1688;51.000;13.684;2023-11-21T13:19:24;6.80;99.90
3350;DHT22;1688;51.000;13.684;2023-11-21T13:22:00;6.90;99.90
3350;DHT22;1688;51.000;13.684;2023-11-21T13:24:36;6.90;99.90
3350;DHT22;1688;51.000;13.684;2023-11-21T13:27:09;6.90;99.90
3350;DHT22;1688;51.000;13.684;2023-11-21T13:29:43;6.90;99.90
3350;DHT22;1688;51.000;13.684;2023-11-21T13:32:16;7.00;99.90
3350;DHT22;1688;51.000;13.684;2023-11-21T13:34:53;6.90;99.90
3350;DHT22;1688;51.000;13.684;2023-11-21T13:37:27;6.80;99.90
3350;DHT22;1688;51.000;13.684;2023-11-21T13:40:01;6.50;99.90
3350;DHT22;1688;51.000;13.684;2023-11-21T13:42:42;6.20;99.90
3350;DHT22;1688;51.000;13.684;2023-11-21T13:45:15;6.10;99.90
3350;DHT22;1688;51.000;13.684;2023-11-21T13:47:51;6.00;99.90
3350;DHT22;1688;51.000;13.684;2023-11-21T13:50:28;5.90;99.90
3350;DHT22;1688;51.000;13.684;2023-11-21T13:53:08;5.80;99.90
3350;DHT22;1688;51.000;13.684;2023-11-21T13:55:52;5.80;99.90
3350;DHT22;1688;51.000;13.684;2023-11-21T13:58:30;5.80;99.90
3350;DHT22;1688;51.000;13.684;2023-11-21T14:01:23;5.90;99.90
3350;DHT22;1688;51.000;13.684;2023-11-21T14:04:04;6.00;99.90
3350;DHT22;1688;51.000;13.684;2023-11-21T14:06:50;6.00;99.90
3350;DHT22;1688;51.000;13.684;2023-11-21T14:09:26;6.00;99.90
3350;DHT22;1688;51.000;13.684;2023-11-21T14:12:05;6.00;99.90
3350;DHT22;1688;51.000;13.684;2023-11-21T14:14:40;6.00;99.90
3350;DHT22;1688;51.000;13.684;2023-11-21T14:17:13;6.00;99.90
3350;DHT22;1688;51.000;13.684;2023-11-21T14:19:46;5.80;99.90
3350;DHT22;1688;51.000;13.684;2023-11-21T14:22:20;5.60;99.90
3350;DHT22;1688;51.000;13.684;2023-11-21T14:24:53;5.70;99.90
3350;DHT22;1688;51.000;13.684;2023-11-21T14:27:28;5.50;99.90
3350;DHT22;1688;51.000;13.684;2023-11-21T14:30:01;5.20;99.90
3350;DHT22;1688;51.000;13.684;2023-11-21T14:32:34;5.20;99.90
3350;DHT22;1688;51.000;13.684;2023-11-21T14:35:08;5.20;99.90
3350;DHT22;1688;51.000;13.684;2023-11-21T14:37:42;5.10;99.90
3350;DHT22;1688;51.000;13.684;2023-11-21T14:40:22;4.80;99.90
3350;DHT22;1688;51.000;13.684;2023-11-21T14:42:57;4.80;99.90
3350;DHT22;1688;51.000;13.684;2023-11-21T14:45:30;4.80;99.90
3350;DHT22;1688;51.000;13.684;2023-11-21T14:48:04;4.70;99.90
3350;DHT22;1688;51.000;13.684;2023-11-21T14:50:37;4.60;99.90
3350;DHT22;1688;51.000;13.684;2023-11-21T14:53:11;4.70;99.90
3350;DHT22;1688;51.000;13.684;2023-11-21T14:55:46;4.80;99.90
3350;DHT22;1688;51.000;13.684;2023-11-21T14:58:24;4.80;99.90
3350;DHT22;1688;51.000;13.684;2023-11-21T15:01:00;4.90;99.90
3350;DHT22;1688;51.000;13.684;2023-11-21T15:03:33;4.90;99.90
3350;DHT22;1688;51.000;13.684;2023-11-21T15:06:15;4.90;99.90
3350;DHT22;1688;51.000;13.684;2023-11-21T15:08:55;4.90;99.90
3350;DHT22;1688;51.000;13.684;2023-11-21T15:11:48;4.80;99.90
3350;DHT22;1688;51.000;13.684;2023-11-21T15:14:21;4.70;99.90
3350;DHT22;1688;51.000;13.684;2023-11-21T15:16:58;4.70;99.90
3350;DHT22;1688;51.000;13.684;2023-11-21T15:19:35;4.70;99.90
3350;DHT22;1688;51.000;13.684;2023-11-21T15:22:08;4.60;99.90
3350;DHT22;1688;51.000;13.684;2023-11-21T15:24:43;4.60;99.90
3350;DHT22;1688;51.000;13.684;2023-11-21T15:27:19;4.70;99.90
3350;DHT22;1688;51.000;13.684;2023-11-21T15:29:52;4.80;99.90
3350;DHT22;1688;51.000;13.684;2023-11-21T15:32:26;5.00;99.90
3350;DHT22;1688;51.000;13.684;2023-11-21T15:34:59;5.00;99.90
3350;DHT22;1688;51.000;13.684;2023-11-21T15:37:32;5.10;99.90
3350;DHT22;1688;51.000;13.684;2023-11-21T15:40:05;5.20;99.90
3350;DHT22;1688;51.000;13.684;2023-11-21T15:42:39;5.20;99.90
3350;DHT22;1688;51.000;13.684;2023-11-21T15:45:12;5.20;99.90
3350;DHT22;1688;51.000;13.684;2023-11-21T15:47:44;5.20;99.90
3350;DHT22;1688;51.000;13.684;2023-11-21T15:50:17;5.20;99.90
3350;DHT22;1688;51.000;13.684;2023-11-21T15:52:50;5.20;99.90
3350;DHT22;1688;51.000;13.684;2023-11-21T15:55:29;5.30;99.90
3350;DHT22;1688;51.000;13.684;2023-11-21T15:58:04;5.30;99.90
3350;DHT22;1688;51.000;13.684;2023-11-21T16:00:39;5.20;99.90
3350;DHT22;1688;51.000;13.684;2023-11-21T16:03:14;5.10;99.90
3350;DHT22;1688;51.000;13.684;2023-11-21T16:05:47;5.30;99.90
3350;DHT22;1688;51.000;13.684;2023-11-21T16:08:20;5.30;99.90
3350;DHT22;1688;51.000;13.684;2023-11-21T16:10:53;5.20;99.90
3350;DHT22;1688;51.000;13.684;2023-11-21T16:13:26;5.10;99.90
3350;DHT22;1688;51.000;13.684;2023-11-21T16:16:01;5.00;99.90
3350;DHT22;1688;51.000;13.684;2023-11-21T16:18:34;5.00;99.90
3350;DHT22;1688;51.000;13.684;2023-11-21T16:21:07;5.00;99.90
3350;DHT22;1688;51.000;13.684;2023-11-21T16:23:40;5.00;99.90
3350;DHT22;1688;51.000;13.684;2023-11-21T16:26:13;4.90;99.90
3350;DHT22;1688;51.000;13.684;2023-11-21T16:28:46;4.90;99.90
3350;DHT22;1688;51.000;13.684;2023-11-21T16:31:25;4.90;99.90
3350;DHT22;1688;51.000;13.684;2023-11-21T16:33:58;4.90;99.90
3350;DHT22;1688;51.000;13.684;2023-11-21T16:36:37;4.90;99.90
3350;DHT22;1688;51.000;13.684;2023-11-21T16:39:10;4.80;99.90
3350;DHT22;1688;51.000;13.684;2023-11-21T16:41:46;4.80;99.90
3350;DHT22;1688;51.000;13.684;2023-11-21T16:44:21;4.80;99.90
3350;DHT22;1688;51.000;13.684;2023-11-21T16:46:54;4.80;99.90
3350;DHT22;1688;51.000;13.684;2023-11-21T16:49:29;4.80;99.90